createdAt,value
2023-05-17T00:00:35.108Z,47.95
2023-05-17T00:03:02.217Z,48.25
2023-05-17T00:05:29.590Z,48.60
2023-05-17T00:07:56.832Z,48.82
2023-05-17T00:10:23.924Z,48.97
2023-05-17T00:12:51.090Z,48.94
2023-05-17T00:15:18.226Z,49.16
2023-05-17T00:17:45.306Z,49.16
2023-05-17T00:20:12.736Z,49.40
2023-05-17T00:22:41.114Z,49.35
2023-05-17T00:25:08.415Z,49.39
2023-05-17T00:27:35.450Z,49.36
2023-05-17T00:30:02.652Z,49.67
2023-05-17T00:32:32.435Z,49.62
2023-05-17T00:34:59.574Z,49.71
2023-05-17T00:37:26.683Z,49.90
2023-05-17T00:39:54.248Z,49.97
2023-05-17T00:42:21.289Z,50.16
2023-05-17T00:44:48.752Z,50.21
2023-05-17T00:47:16.040Z,50.36
2023-05-17T00:49:43.352Z,50.22
2023-05-17T00:52:10.536Z,50.35
2023-05-17T00:54:37.611Z,50.39
2023-05-17T00:57:05.934Z,50.63
2023-05-17T00:59:34.848Z,50.60
2023-05-17T01:02:04.137Z,50.54
2023-05-17T01:04:31.532Z,50.67
2023-05-17T01:07:00.479Z,50.77
2023-05-17T01:09:27.613Z,50.84
2023-05-17T01:12:06.523Z,50.96
2023-05-17T01:15:11.259Z,51.23
2023-05-17T01:18:00.344Z,50.90
2023-05-17T01:20:36.502Z,50.89
2023-05-17T01:23:40.605Z,51.16
2023-05-17T01:26:19.207Z,50.94
2023-05-17T01:28:49.774Z,51.14
2023-05-17T01:31:18.727Z,51.58
2023-05-17T01:33:46.660Z,51.51
2023-05-17T01:36:13.778Z,51.52
2023-05-17T01:38:41.951Z,51.64
2023-05-17T01:41:42.548Z,51.82
2023-05-17T01:44:33.204Z,51.86
2023-05-17T01:47:12.938Z,52.16
2023-05-17T01:49:41.918Z,52.03
2023-05-17T01:52:17.029Z,51.93
2023-05-17T01:54:47.549Z,52.26
2023-05-17T01:57:15.241Z,52.26
2023-05-17T01:59:44.354Z,52.41
2023-05-17T02:02:11.444Z,52.51
2023-05-17T02:04:38.534Z,52.47
2023-05-17T02:07:05.693Z,52.42
2023-05-17T02:09:32.748Z,52.53
2023-05-17T02:11:59.878Z,52.66
2023-05-17T02:14:27.078Z,52.59
2023-05-17T02:16:54.487Z,52.76
2023-05-17T02:19:22.127Z,52.82
2023-05-17T02:21:49.588Z,52.97
2023-05-17T02:24:17.985Z,52.80
2023-05-17T02:26:45.992Z,53.01
2023-05-17T02:29:13.189Z,53.10
2023-05-17T02:31:40.601Z,53.13
2023-05-17T02:34:07.655Z,53.17
2023-05-17T02:36:35.078Z,53.37
2023-05-17T02:39:02.192Z,53.38
2023-05-17T02:41:29.277Z,53.44
2023-05-17T02:43:58.341Z,53.13
2023-05-17T02:46:27.304Z,53.65
2023-05-17T02:48:54.477Z,53.77
2023-05-17T02:51:21.724Z,53.91
2023-05-17T02:53:48.967Z,53.76
2023-05-17T02:56:16.054Z,53.84
2023-05-17T02:58:44.881Z,53.97
2023-05-17T03:01:12.096Z,53.99
2023-05-17T03:03:39.537Z,53.85
2023-05-17T03:06:07.180Z,54.16
2023-05-17T03:08:35.151Z,54.16
2023-05-17T03:11:04.041Z,54.17
2023-05-17T03:13:31.657Z,54.38
2023-05-17T03:15:58.758Z,54.22
2023-05-17T03:18:28.802Z,54.34
2023-05-17T03:20:56.012Z,54.43
2023-05-17T03:23:23.444Z,54.35
2023-05-17T03:25:59.186Z,53.85
2023-05-17T03:28:28.147Z,53.88
2023-05-17T03:30:58.111Z,53.86
2023-05-17T03:33:27.769Z,53.94
2023-05-17T03:35:54.883Z,53.99
2023-05-17T03:38:22.006Z,53.79
2023-05-17T03:40:52.042Z,53.47
2023-05-17T03:43:19.461Z,53.54
2023-05-17T03:45:47.722Z,53.67
2023-05-17T03:48:17.649Z,53.32
2023-05-17T03:50:45.250Z,53.23
2023-05-17T03:53:12.943Z,52.82
2023-05-17T03:55:40.123Z,52.62
2023-05-17T03:58:10.371Z,52.42
2023-05-17T04:00:37.603Z,51.88
2023-05-17T04:03:13.031Z,51.90
2023-05-17T04:05:41.561Z,51.84
2023-05-17T04:08:09.583Z,51.67
2023-05-17T04:10:36.668Z,51.39
2023-05-17T04:13:04.705Z,51.37
2023-05-17T04:15:32.195Z,50.92
2023-05-17T04:18:03.373Z,50.62
2023-05-17T04:20:31.137Z,50.14
2023-05-17T04:22:58.360Z,49.82
2023-05-17T04:25:29.124Z,49.57
2023-05-17T04:27:56.910Z,49.24
2023-05-17T04:30:24.349Z,48.53
2023-05-17T04:32:51.626Z,48.75
2023-05-17T04:35:19.172Z,48.52
2023-05-17T04:37:49.686Z,47.82
2023-05-17T04:40:21.417Z,47.79
2023-05-17T04:42:49.571Z,47.57
2023-05-17T04:45:17.960Z,47.51
2023-05-17T04:47:45.836Z,46.90
2023-05-17T04:50:15.344Z,46.60
2023-05-17T04:52:42.717Z,46.35
2023-05-17T04:55:10.506Z,45.91
2023-05-17T04:57:38.651Z,45.88
2023-05-17T05:00:08.959Z,45.78
2023-05-17T05:02:38.266Z,45.18
2023-05-17T05:05:07.061Z,44.49
2023-05-17T05:07:35.748Z,44.01
2023-05-17T05:10:04.326Z,44.12
2023-05-17T05:12:32.096Z,43.94
2023-05-17T05:15:01.204Z,43.80
2023-05-17T05:17:33.945Z,43.60
2023-05-17T05:20:01.305Z,43.60
2023-05-17T05:22:28.619Z,43.07
2023-05-17T05:24:56.782Z,42.65
2023-05-17T05:27:23.891Z,42.31
2023-05-17T05:29:51.558Z,41.75
2023-05-17T05:32:19.159Z,41.36
2023-05-17T05:34:49.261Z,41.12
2023-05-17T05:37:18.591Z,40.25
2023-05-17T05:39:46.773Z,39.79
2023-05-17T05:42:13.937Z,39.94
2023-05-17T05:44:40.990Z,39.32
2023-05-17T05:47:09.319Z,38.97
2023-05-17T05:49:36.766Z,39.35
2023-05-17T05:52:04.037Z,38.80
2023-05-17T05:54:34.646Z,38.49
2023-05-17T05:57:01.711Z,38.10
2023-05-17T05:59:28.861Z,37.47
2023-05-17T06:01:58.738Z,37.48
2023-05-17T06:04:36.380Z,36.97
2023-05-17T06:07:11.607Z,36.86
2023-05-17T06:09:38.676Z,36.79
2023-05-17T06:12:05.880Z,36.50
2023-05-17T06:14:32.969Z,36.47
2023-05-17T06:17:00.092Z,36.13
2023-05-17T06:19:27.265Z,35.45
2023-05-17T06:21:54.417Z,35.75
2023-05-17T06:24:21.580Z,34.95
2023-05-17T06:26:48.861Z,35.15
2023-05-17T06:29:15.940Z,35.02
2023-05-17T06:31:43.153Z,34.70
2023-05-17T06:34:12.869Z,34.05
2023-05-17T06:36:40.737Z,33.80
2023-05-17T06:39:08.085Z,33.75
2023-05-17T06:41:35.165Z,33.65
2023-05-17T06:44:02.170Z,33.21
2023-05-17T06:46:29.300Z,32.94
2023-05-17T06:48:56.475Z,32.74
2023-05-17T06:51:23.906Z,33.00
2023-05-17T06:53:50.999Z,32.95
2023-05-17T06:56:18.114Z,32.72
2023-05-17T06:58:45.133Z,32.64
2023-05-17T07:01:13.272Z,32.01
2023-05-17T07:03:40.472Z,31.79
2023-05-17T07:06:07.910Z,31.80
2023-05-17T07:08:37.784Z,31.18
2023-05-17T07:11:05.410Z,31.46
2023-05-17T07:13:33.280Z,31.38
2023-05-17T07:16:00.828Z,31.23
2023-05-17T07:18:28.029Z,31.45
2023-05-17T07:20:55.172Z,31.23
2023-05-17T07:23:22.500Z,31.07
2023-05-17T07:25:49.638Z,30.89
2023-05-17T07:28:17.124Z,30.75
2023-05-17T07:30:44.259Z,30.97
2023-05-17T07:33:11.632Z,30.57
2023-05-17T07:35:41.704Z,30.50
2023-05-17T07:38:10.621Z,30.61
2023-05-17T07:40:37.795Z,30.46
2023-05-17T07:43:04.852Z,30.42
2023-05-17T07:45:32.045Z,30.20
2023-05-17T07:47:59.542Z,30.04
2023-05-17T07:50:26.782Z,30.09
2023-05-17T07:52:54.044Z,30.17
2023-05-17T07:55:21.487Z,30.13
2023-05-17T07:57:48.586Z,30.21
2023-05-17T08:00:19.436Z,29.95
2023-05-17T08:02:46.771Z,29.94
2023-05-17T08:05:13.944Z,30.29
2023-05-17T08:07:41.143Z,30.20
2023-05-17T08:10:08.559Z,30.01
2023-05-17T08:12:35.640Z,30.04
2023-05-17T08:15:02.910Z,29.50
2023-05-17T08:17:33.507Z,30.21
2023-05-17T08:20:00.670Z,29.94
2023-05-17T08:22:27.925Z,29.56
2023-05-17T08:24:54.965Z,29.17
2023-05-17T08:27:22.056Z,29.05
2023-05-17T08:29:49.152Z,29.03
2023-05-17T08:32:16.166Z,28.77
2023-05-17T08:34:43.263Z,28.48
2023-05-17T08:37:10.409Z,28.36
2023-05-17T08:39:37.496Z,28.99
2023-05-17T08:42:08.670Z,28.68
2023-05-17T08:44:36.635Z,28.38
2023-05-17T08:47:04.271Z,28.54
2023-05-17T08:49:34.708Z,28.53
2023-05-17T08:52:09.877Z,28.36
2023-05-17T08:54:37.743Z,28.24
2023-05-17T08:57:06.908Z,28.04
2023-05-17T08:59:35.310Z,28.07
2023-05-17T09:02:03.067Z,28.51
2023-05-17T09:04:33.427Z,27.93
2023-05-17T09:07:00.619Z,28.09
2023-05-17T09:09:28.150Z,28.52
2023-05-17T09:11:55.358Z,28.05
2023-05-17T09:14:22.525Z,27.78
2023-05-17T09:16:57.487Z,27.78
2023-05-17T09:19:24.760Z,27.56
2023-05-17T09:21:52.259Z,27.93
2023-05-17T09:24:28.525Z,27.33
2023-05-17T09:27:02.307Z,27.66
2023-05-17T09:29:34.233Z,27.96
2023-05-17T09:32:18.509Z,27.96
2023-05-17T09:34:50.166Z,27.97
2023-05-17T09:37:19.116Z,27.77
2023-05-17T09:39:48.044Z,27.43
2023-05-17T09:42:17.036Z,27.93
2023-05-17T09:44:57.788Z,27.09
2023-05-17T09:47:29.194Z,27.09
2023-05-17T09:49:58.347Z,26.95
2023-05-17T09:52:25.502Z,27.03
2023-05-17T09:54:57.930Z,26.86
2023-05-17T09:57:29.463Z,26.84
2023-05-17T09:59:58.223Z,27.10
2023-05-17T10:02:31.299Z,26.92
2023-05-17T10:04:58.659Z,27.55
2023-05-17T10:07:27.158Z,27.28
2023-05-17T10:09:56.163Z,26.79
2023-05-17T10:12:25.047Z,26.93
2023-05-17T10:14:56.086Z,26.82
2023-05-17T10:17:24.069Z,27.55
2023-05-17T10:19:51.860Z,27.30
2023-05-17T10:22:23.730Z,26.66
2023-05-17T10:24:51.984Z,26.80
2023-05-17T10:27:20.993Z,27.15
2023-05-17T10:29:50.454Z,27.33
2023-05-17T10:32:23.336Z,27.35
2023-05-17T10:35:01.541Z,27.02
2023-05-17T10:37:37.286Z,27.19
2023-05-17T10:40:05.051Z,27.20
2023-05-17T10:42:32.746Z,26.83
2023-05-17T10:45:01.907Z,27.33
2023-05-17T10:47:33.240Z,27.29
2023-05-17T10:50:00.638Z,27.23
2023-05-17T10:52:28.035Z,26.88
2023-05-17T10:54:56.584Z,27.00
2023-05-17T10:57:50.058Z,27.42
2023-05-17T11:00:22.224Z,27.55
2023-05-17T11:02:50.897Z,27.41
2023-05-17T11:05:26.016Z,27.00
2023-05-17T11:08:11.929Z,26.66
2023-05-17T11:10:39.173Z,26.95
2023-05-17T11:13:23.413Z,27.00
2023-05-17T11:16:08.100Z,25.92
2023-05-17T11:18:52.845Z,27.32
2023-05-17T11:21:22.556Z,26.37
2023-05-17T11:23:56.762Z,26.38
2023-05-17T11:26:32.066Z,25.98
2023-05-17T11:29:12.457Z,26.57
2023-05-17T11:31:51.857Z,26.65
2023-05-17T11:34:19.527Z,25.52
2023-05-17T11:36:54.652Z,26.09
2023-05-17T11:39:23.918Z,25.60
2023-05-17T11:41:58.090Z,25.55
2023-05-17T11:44:32.841Z,24.94
2023-05-17T11:47:04.733Z,24.53
2023-05-17T11:49:36.672Z,25.09
2023-05-17T11:52:08.237Z,25.31
2023-05-17T11:54:35.648Z,24.96
2023-05-17T11:57:04.307Z,24.92
2023-05-17T11:59:38.785Z,24.75
2023-05-17T12:02:06.346Z,24.82
2023-05-17T12:04:38.064Z,24.63
2023-05-17T12:07:09.060Z,25.01
2023-05-17T12:09:37.583Z,25.55
2023-05-17T12:12:05.971Z,25.56
2023-05-17T12:14:33.182Z,24.97
2023-05-17T12:17:02.754Z,24.94
2023-05-17T12:19:30.573Z,25.51
2023-05-17T12:22:14.803Z,25.27
2023-05-17T12:24:43.197Z,25.47
2023-05-17T12:27:11.164Z,25.69
2023-05-17T12:29:39.326Z,25.68
2023-05-17T12:32:08.897Z,25.86
2023-05-17T12:34:36.475Z,25.11
2023-05-17T12:37:04.376Z,25.78
2023-05-17T12:39:31.864Z,25.62
2023-05-17T12:41:59.446Z,25.19
2023-05-17T12:44:26.589Z,25.46
2023-05-17T12:46:56.406Z,25.80
2023-05-17T12:49:23.801Z,25.38
2023-05-17T12:51:50.878Z,25.02
2023-05-17T12:54:28.640Z,24.58
2023-05-17T12:56:57.116Z,24.92
2023-05-17T12:59:29.284Z,25.20
2023-05-17T13:01:58.302Z,24.92
2023-05-17T13:04:33.109Z,25.20
2023-05-17T13:07:02.758Z,25.35
2023-05-17T13:09:32.280Z,25.94
2023-05-17T13:12:07.309Z,25.94
2023-05-17T13:14:45.796Z,25.97
2023-05-17T13:17:24.790Z,26.12
2023-05-17T13:19:52.637Z,25.61
2023-05-17T13:22:19.859Z,25.43
2023-05-17T13:24:46.970Z,25.21
2023-05-17T13:27:14.107Z,25.21
2023-05-17T13:29:42.958Z,25.70
2023-05-17T13:32:12.064Z,25.74
2023-05-17T13:34:40.668Z,25.07
2023-05-17T13:37:11.109Z,25.25
2023-05-17T13:39:41.368Z,25.52
2023-05-17T13:42:09.801Z,25.50
2023-05-17T13:44:38.496Z,25.40
2023-05-17T13:47:06.433Z,25.27
2023-05-17T13:49:33.574Z,25.49
2023-05-17T13:52:00.981Z,25.50
2023-05-17T13:54:28.377Z,25.72
2023-05-17T13:56:57.622Z,25.47
2023-05-17T13:59:25.056Z,25.29
2023-05-17T14:01:52.793Z,25.61
2023-05-17T14:04:22.759Z,25.52
2023-05-17T14:06:51.742Z,25.64
2023-05-17T14:09:20.517Z,25.08
2023-05-17T14:11:47.675Z,25.57
2023-05-17T14:14:14.828Z,25.61
2023-05-17T14:16:42.020Z,25.96
2023-05-17T14:19:09.266Z,25.53
2023-05-17T14:21:36.636Z,25.84
2023-05-17T14:24:03.929Z,25.60
2023-05-17T14:26:31.042Z,25.68
2023-05-17T14:28:58.143Z,25.78
2023-05-17T14:31:25.225Z,26.01
2023-05-17T14:33:52.355Z,25.43
2023-05-17T14:36:19.455Z,25.34
2023-05-17T14:38:46.521Z,25.56
2023-05-17T14:41:13.632Z,25.81
2023-05-17T14:43:40.687Z,25.84
2023-05-17T14:46:07.795Z,25.69
2023-05-17T14:48:34.972Z,25.53
2023-05-17T14:51:03.663Z,25.96
2023-05-17T14:53:31.003Z,25.31
2023-05-17T14:55:59.215Z,25.60
2023-05-17T14:58:26.850Z,25.41
2023-05-17T15:01:05.058Z,25.18
2023-05-17T15:03:33.634Z,25.33
2023-05-17T15:06:02.597Z,25.04
2023-05-17T15:08:31.729Z,25.14
2023-05-17T15:10:59.055Z,25.06
2023-05-17T15:13:26.689Z,25.19
2023-05-17T15:15:54.059Z,25.46
2023-05-17T15:18:21.337Z,25.45
2023-05-17T15:20:48.694Z,25.13
2023-05-17T15:23:16.239Z,25.24
2023-05-17T15:25:43.353Z,25.61
2023-05-17T15:28:10.475Z,25.40
2023-05-17T15:30:37.522Z,25.66
2023-05-17T15:33:04.847Z,25.61
2023-05-17T15:35:32.124Z,25.80
2023-05-17T15:37:59.896Z,25.84
2023-05-17T15:40:27.748Z,25.89
2023-05-17T15:42:54.825Z,25.69
2023-05-17T15:45:21.977Z,25.85
2023-05-17T15:47:49.610Z,25.87
2023-05-17T15:50:17.056Z,26.04
2023-05-17T15:52:44.233Z,26.15
2023-05-17T15:55:11.421Z,26.10
2023-05-17T15:57:38.551Z,26.54
2023-05-17T16:00:06.318Z,26.84
2023-05-17T16:02:34.186Z,27.40
2023-05-17T16:05:03.505Z,27.39
2023-05-17T16:07:31.521Z,26.85
2023-05-17T16:09:58.642Z,27.31
2023-05-17T16:12:25.783Z,27.08
2023-05-17T16:14:52.820Z,27.07
2023-05-17T16:17:19.907Z,27.02
2023-05-17T16:19:46.994Z,27.28
2023-05-17T16:22:14.246Z,27.74
2023-05-17T16:24:42.024Z,27.73
2023-05-17T16:27:09.121Z,27.82
2023-05-17T16:29:40.296Z,27.74
2023-05-17T16:32:08.497Z,28.33
2023-05-17T16:34:36.224Z,28.00
2023-05-17T16:37:04.944Z,28.36
2023-05-17T16:39:33.082Z,28.78
2023-05-17T16:42:00.263Z,28.39
2023-05-17T16:44:27.371Z,28.47
2023-05-17T16:46:54.434Z,28.97
2023-05-17T16:49:21.523Z,29.36
2023-05-17T16:51:50.668Z,29.61
2023-05-17T16:54:18.173Z,29.30
2023-05-17T16:56:45.317Z,29.00
2023-05-17T16:59:12.365Z,29.47
2023-05-17T17:01:39.478Z,30.54
2023-05-17T17:04:06.599Z,29.99
2023-05-17T17:06:34.051Z,30.50
2023-05-17T17:09:01.861Z,30.94
2023-05-17T17:11:28.988Z,31.31
2023-05-17T17:13:56.030Z,31.80
2023-05-17T17:16:23.183Z,32.18
2023-05-17T17:18:50.357Z,32.92
2023-05-17T17:21:17.692Z,33.24
2023-05-17T17:23:44.956Z,32.50
2023-05-17T17:26:12.132Z,32.90
2023-05-17T17:28:39.355Z,33.49
2023-05-17T17:31:06.834Z,33.28
2023-05-17T17:33:34.610Z,33.41
2023-05-17T17:36:02.873Z,33.85
2023-05-17T17:38:29.953Z,34.32
2023-05-17T17:40:57.115Z,34.85
2023-05-17T17:43:24.163Z,34.95
2023-05-17T17:45:51.190Z,34.67
2023-05-17T17:48:18.396Z,34.93
2023-05-17T17:50:45.475Z,35.99
2023-05-17T17:53:12.623Z,36.10
2023-05-17T17:55:39.676Z,35.71
2023-05-17T17:58:07.189Z,35.97
2023-05-17T18:00:34.261Z,36.09
2023-05-17T18:03:01.730Z,36.02
2023-05-17T18:05:28.943Z,36.64
2023-05-17T18:07:56.094Z,37.47
2023-05-17T18:10:23.251Z,37.07
2023-05-17T18:12:51.738Z,36.92
2023-05-17T18:15:19.199Z,36.56
2023-05-17T18:17:46.320Z,37.06
2023-05-17T18:20:13.437Z,36.95
2023-05-17T18:22:40.509Z,36.59
2023-05-17T18:25:07.864Z,36.53
2023-05-17T18:27:35.526Z,36.92
2023-05-17T18:30:03.816Z,37.38
2023-05-17T18:32:33.562Z,37.39
2023-05-17T18:35:00.807Z,37.92
2023-05-17T18:37:27.847Z,38.06
2023-05-17T18:39:55.376Z,38.40
2023-05-17T18:42:25.048Z,39.02
2023-05-17T18:44:52.227Z,38.77
2023-05-17T18:47:19.470Z,38.76
2023-05-17T18:49:47.174Z,38.74
2023-05-17T18:52:14.244Z,39.26
2023-05-17T18:54:41.372Z,39.02
2023-05-17T18:57:11.459Z,39.07
2023-05-17T18:59:38.690Z,39.05
2023-05-17T19:02:06.582Z,38.66
2023-05-17T19:04:33.765Z,38.65
2023-05-17T19:07:00.961Z,38.85
2023-05-17T19:09:28.082Z,39.27
2023-05-17T19:11:56.330Z,39.73
2023-05-17T19:14:23.417Z,39.63
2023-05-17T19:16:51.778Z,40.38
2023-05-17T19:19:18.908Z,39.99
2023-05-17T19:21:46.020Z,40.15
2023-05-17T19:24:13.134Z,40.43
2023-05-17T19:26:40.436Z,40.54
2023-05-17T19:29:07.646Z,40.94
2023-05-17T19:31:34.775Z,41.25
2023-05-17T19:34:02.059Z,41.59
2023-05-17T19:36:29.113Z,41.41
2023-05-17T19:38:56.215Z,41.57
2023-05-17T19:41:23.510Z,41.82
2023-05-17T19:43:50.660Z,41.38
2023-05-17T19:46:17.694Z,41.55
2023-05-17T19:48:44.910Z,41.93
2023-05-17T19:51:12.095Z,41.69
2023-05-17T19:53:51.790Z,41.89
2023-05-17T19:56:20.111Z,42.08
2023-05-17T19:58:47.261Z,41.80
2023-05-17T20:01:14.420Z,42.20
2023-05-17T20:03:41.737Z,42.28
2023-05-17T20:06:14.464Z,42.22
2023-05-17T20:08:42.086Z,43.01
2023-05-17T20:11:09.410Z,43.29
2023-05-17T20:13:40.609Z,43.16
2023-05-17T20:16:12.793Z,43.24
2023-05-17T20:18:44.270Z,43.06
2023-05-17T20:21:15.407Z,43.25
2023-05-17T20:23:42.699Z,43.32
2023-05-17T20:26:16.416Z,43.33
2023-05-17T20:28:44.780Z,43.51
2023-05-17T20:31:12.244Z,43.29
2023-05-17T20:33:39.279Z,43.66
2023-05-17T20:36:06.494Z,43.65
2023-05-17T20:38:33.657Z,43.76
2023-05-17T20:41:00.850Z,43.94
2023-05-17T20:43:29.120Z,43.80
2023-05-17T20:45:56.676Z,43.90
2023-05-17T20:48:24.043Z,44.19
2023-05-17T20:50:51.405Z,44.27
2023-05-17T20:53:18.613Z,44.34
2023-05-17T20:55:45.829Z,44.46
2023-05-17T20:58:13.053Z,44.48
2023-05-17T21:00:40.253Z,44.92
2023-05-17T21:03:09.508Z,45.13
2023-05-17T21:05:38.651Z,45.16
2023-05-17T21:08:07.516Z,45.03
2023-05-17T21:10:36.252Z,45.46
2023-05-17T21:13:03.589Z,45.36
2023-05-17T21:15:30.991Z,45.51
2023-05-17T21:17:58.354Z,45.23
2023-05-17T21:20:25.642Z,45.18
2023-05-17T21:22:52.955Z,45.34
2023-05-17T21:25:20.011Z,45.54
2023-05-17T21:27:47.652Z,45.65
2023-05-17T21:30:15.094Z,45.79
2023-05-17T21:32:42.365Z,45.84
2023-05-17T21:35:09.919Z,45.85
2023-05-17T21:37:40.129Z,45.94
2023-05-17T21:40:08.422Z,45.83
2023-05-17T21:42:36.156Z,45.82
2023-05-17T21:45:03.444Z,45.74
2023-05-17T21:47:32.308Z,45.72
2023-05-17T21:49:59.742Z,45.99
2023-05-17T21:52:26.877Z,46.01
2023-05-17T21:54:53.909Z,46.04
2023-05-17T21:57:21.348Z,46.11
2023-05-17T21:59:49.577Z,46.20
2023-05-17T22:02:16.974Z,46.16
2023-05-17T22:04:44.268Z,46.73
2023-05-17T22:07:11.855Z,46.90
2023-05-17T22:09:38.932Z,46.80
2023-05-17T22:12:08.569Z,46.80
2023-05-17T22:14:36.573Z,47.12
2023-05-17T22:17:08.594Z,47.21
2023-05-17T22:19:40.993Z,47.55
2023-05-17T22:22:09.538Z,47.60
2023-05-17T22:24:37.126Z,47.49
2023-05-17T22:27:04.445Z,47.54
2023-05-17T22:29:31.715Z,47.65
2023-05-17T22:31:58.905Z,47.83
2023-05-17T22:34:25.996Z,47.61
2023-05-17T22:36:53.023Z,47.56
2023-05-17T22:39:20.055Z,47.96
2023-05-17T22:41:47.131Z,48.04
2023-05-17T22:44:14.211Z,47.86
2023-05-17T22:46:42.283Z,47.94
2023-05-17T22:49:09.874Z,48.01
2023-05-17T22:51:37.018Z,47.99
2023-05-17T22:54:04.220Z,48.12
2023-05-17T22:56:31.515Z,48.38
2023-05-17T22:58:59.149Z,48.50
2023-05-17T23:01:26.367Z,48.63
2023-05-17T23:03:53.709Z,48.49
2023-05-17T23:06:22.278Z,48.55
2023-05-17T23:08:49.909Z,48.72
2023-05-17T23:11:18.147Z,48.50
2023-05-17T23:13:45.241Z,48.77
2023-05-17T23:16:14.223Z,48.90
2023-05-17T23:18:41.505Z,49.02
2023-05-17T23:21:09.625Z,49.23
2023-05-17T23:23:38.153Z,49.00
2023-05-17T23:26:06.111Z,48.97
2023-05-17T23:28:33.362Z,49.15
2023-05-17T23:31:02.251Z,49.16
2023-05-17T23:33:32.307Z,49.35
2023-05-17T23:35:59.325Z,49.44
2023-05-17T23:38:26.669Z,49.41
2023-05-17T23:40:54.528Z,49.56
2023-05-17T23:43:21.607Z,49.75
2023-05-17T23:45:48.832Z,49.60
2023-05-17T23:48:16.306Z,50.03
2023-05-17T23:50:43.402Z,49.99
2023-05-17T23:53:10.608Z,49.95
2023-05-17T23:55:38.716Z,50.34
2023-05-17T23:58:06.079Z,50.41
